sensor_id;sensor_type;location;lat;lon;timestamp;pressure;altitude;pressure_sealevel;temperature;humidity
13968;BME280;39536;52.198;9.920;2023-02-14T00:02:20;102784.38;;;3.14;100.00
13968;BME280;39536;52.198;9.920;2023-02-14T00:04:47;102786.84;;;3.11;100.00
13968;BME280;39536;52.198;9.920;2023-02-14T00:07:13;102788.50;;;3.09;100.00
13968;BME280;39536;52.198;9.920;2023-02-14T00:09:40;102779.00;;;3.08;100.00
13968;BME280;39536;52.198;9.920;2023-02-14T00:12:06;102786.91;;;3.13;100.00
13968;BME280;39536;52.198;9.920;2023-02-14T00:14:33;102781.81;;;3.14;100.00
13968;BME280;39536;52.198;9.920;2023-02-14T00:17:17;102787.03;;;3.16;100.00
13968;BME280;39536;52.198;9.920;2023-02-14T00:19:45;102792.94;;;3.13;100.00
13968;BME280;39536;52.198;9.920;2023-02-14T00:22:12;102784.34;;;3.13;100.00
13968;BME280;39536;52.198;9.920;2023-02-14T00:24:39;102784.84;;;3.03;100.00
13968;BME280;39536;52.198;9.920;2023-02-14T00:27:05;102779.53;;;2.98;100.00
13968;BME280;39536;52.198;9.920;2023-02-14T00:29:32;102780.50;;;3.01;100.00
13968;BME280;39536;52.198;9.920;2023-02-14T00:31:59;102784.56;;;2.95;100.00
13968;BME280;39536;52.198;9.920;2023-02-14T00:34:26;102782.06;;;2.96;100.00
13968;BME280;39536;52.198;9.920;2023-02-14T00:36:54;102782.09;;;2.98;100.00
13968;BME280;39536;52.198;9.920;2023-02-14T00:39:21;102776.91;;;2.96;100.00
13968;BME280;39536;52.198;9.920;2023-02-14T00:41:47;102779.38;;;2.93;100.00
13968;BME280;39536;52.198;9.920;2023-02-14T00:44:14;102783.38;;;2.85;100.00
13968;BME280;39536;52.198;9.920;2023-02-14T00:46:41;102790.00;;;2.78;100.00
13968;BME280;39536;52.198;9.920;2023-02-14T00:49:07;102792.63;;;2.80;100.00
13968;BME280;39536;52.198;9.920;2023-02-14T00:51:34;102792.59;;;2.78;100.00
13968;BME280;39536;52.198;9.920;2023-02-14T00:54:02;102794.97;;;2.74;100.00
13968;BME280;39536;52.198;9.920;2023-02-14T00:56:29;102790.63;;;2.71;100.00
13968;BME280;39536;52.198;9.920;2023-02-14T00:58:56;102789.78;;;2.72;100.00
13968;BME280;39536;52.198;9.920;2023-02-14T01:01:23;102791.31;;;2.67;100.00
13968;BME280;39536;52.198;9.920;2023-02-14T01:03:49;102793.75;;;2.64;100.00
13968;BME280;39536;52.198;9.920;2023-02-14T01:06:16;102796.28;;;2.63;100.00
13968;BME280;39536;52.198;9.920;2023-02-14T01:08:43;102795.13;;;2.54;100.00
13968;BME280;39536;52.198;9.920;2023-02-14T01:11:12;102793.16;;;2.47;100.00
13968;BME280;39536;52.198;9.920;2023-02-14T01:13:39;102792.19;;;2.44;100.00
13968;BME280;39536;52.198;9.920;2023-02-14T01:16:08;102788.00;;;2.47;100.00
13968;BME280;39536;52.198;9.920;2023-02-14T01:18:36;102785.56;;;2.50;100.00
13968;BME280;39536;52.198;9.920;2023-02-14T01:21:15;102788.78;;;2.45;100.00
13968;BME280;39536;52.198;9.920;2023-02-14T01:23:43;102786.97;;;2.42;100.00
13968;BME280;39536;52.198;9.920;2023-02-14T01:26:11;102792.19;;;2.44;100.00
13968;BME280;39536;52.198;9.920;2023-02-14T01:28:38;102784.34;;;2.41;100.00
13968;BME280;39536;52.198;9.920;2023-02-14T01:31:06;102791.88;;;2.36;100.00
13968;BME280;39536;52.198;9.920;2023-02-14T01:33:33;102792.81;;;2.38;100.00
13968;BME280;39536;52.198;9.920;2023-02-14T01:36:00;102787.72;;;2.40;100.00
13968;BME280;39536;52.198;9.920;2023-02-14T01:38:27;102796.44;;;2.43;100.00
13968;BME280;39536;52.198;9.920;2023-02-14T01:40:54;102799.06;;;2.45;100.00
13968;BME280;39536;52.198;9.920;2023-02-14T01:43:22;102799.13;;;2.46;100.00
13968;BME280;39536;52.198;9.920;2023-02-14T01:45:48;102794.84;;;2.47;100.00
13968;BME280;39536;52.198;9.920;2023-02-14T01:48:16;102792.44;;;2.51;100.00
13968;BME280;39536;52.198;9.920;2023-02-14T01:50:45;102791.66;;;2.52;100.00
13968;BME280;39536;52.198;9.920;2023-02-14T01:53:16;102792.56;;;2.54;100.00
13968;BME280;39536;52.198;9.920;2023-02-14T01:55:48;102797.59;;;2.51;100.00
13968;BME280;39536;52.198;9.920;2023-02-14T01:58:19;102792.44;;;2.51;100.00
13968;BME280;39536;52.198;9.920;2023-02-14T02:00:48;102785.66;;;2.53;100.00
13968;BME280;39536;52.198;9.920;2023-02-14T02:03:27;102786.44;;;2.51;100.00
13968;BME280;39536;52.198;9.920;2023-02-14T02:06:00;102787.94;;;2.46;100.00
13968;BME280;39536;52.198;9.920;2023-02-14T02:08:28;102784.59;;;2.48;100.00
13968;BME280;39536;52.198;9.920;2023-02-14T02:10:54;102780.28;;;2.47;100.00
13968;BME280;39536;52.198;9.920;2023-02-14T02:13:21;102780.28;;;2.47;100.00
13968;BME280;39536;52.198;9.920;2023-02-14T02:15:58;102776.91;;;2.48;100.00
13968;BME280;39536;52.198;9.920;2023-02-14T02:18:35;102765.81;;;2.49;100.00
13968;BME280;39536;52.198;9.920;2023-02-14T02:24:22;102779.44;;;2.47;100.00
13968;BME280;39536;52.198;9.920;2023-02-14T02:27:17;102767.44;;;2.47;100.00
13968;BME280;39536;52.198;9.920;2023-02-14T02:36:20;102744.72;;;2.36;100.00
13968;BME280;39536;52.198;9.920;2023-02-14T02:39:05;102740.31;;;2.33;100.00
13968;BME280;39536;52.198;9.920;2023-02-14T02:41:46;102742.09;;;2.34;100.00
13968;BME280;39536;52.198;9.920;2023-02-14T02:44:17;102742.84;;;2.31;100.00
13968;BME280;39536;52.198;9.920;2023-02-14T02:46:53;102734.31;;;2.33;100.00
13968;BME280;39536;52.198;9.920;2023-02-14T02:49:29;102744.72;;;2.36;100.00
13968;BME280;39536;52.198;9.920;2023-02-14T02:52:20;102739.53;;;2.34;100.00
13968;BME280;39536;52.198;9.920;2023-02-14T02:55:25;102746.53;;;2.38;100.00
13968;BME280;39536;52.198;9.920;2023-02-14T02:57:55;102741.38;;;2.38;100.00
13968;BME280;39536;52.198;9.920;2023-02-14T03:00:22;102736.13;;;2.35;100.00
13968;BME280;39536;52.198;9.920;2023-02-14T03:02:51;102730.22;;;2.38;100.00
13968;BME280;39536;52.198;9.920;2023-02-14T03:05:38;102736.47;;;2.44;100.00
13968;BME280;39536;52.198;9.920;2023-02-14T03:08:07;102732.94;;;2.42;100.00
13968;BME280;39536;52.198;9.920;2023-02-14T03:10:35;102731.34;;;2.46;100.00
13968;BME280;39536;52.198;9.920;2023-02-14T03:13:28;102729.50;;;2.42;100.00
13968;BME280;39536;52.198;9.920;2023-02-14T03:16:22;102727.44;;;2.31;100.00
13968;BME280;39536;52.198;9.920;2023-02-14T03:19:15;102725.13;;;2.39;100.00
13968;BME280;39536;52.198;9.920;2023-02-14T03:21:46;102732.16;;;2.43;100.00
13968;BME280;39536;52.198;9.920;2023-02-14T03:24:23;102728.78;;;2.46;100.00
13968;BME280;39536;52.198;9.920;2023-02-14T03:26:58;102725.31;;;2.44;100.00
13968;BME280;39536;52.198;9.920;2023-02-14T03:29:35;102727.03;;;2.45;100.00
13968;BME280;39536;52.198;9.920;2023-02-14T03:32:10;102723.38;;;2.38;100.00
13968;BME280;39536;52.198;9.920;2023-02-14T03:34:45;102717.25;;;2.35;100.00
13968;BME280;39536;52.198;9.920;2023-02-14T03:37:16;102717.25;;;2.35;100.00
13968;BME280;39536;52.198;9.920;2023-02-14T03:39:52;102703.88;;;2.21;100.00
13968;BME280;39536;52.198;9.920;2023-02-14T03:42:26;102698.50;;;2.15;100.00
13968;BME280;39536;52.198;9.920;2023-02-14T03:44:55;102707.34;;;2.21;100.00
13968;BME280;39536;52.198;9.920;2023-02-14T03:47:25;102704.78;;;2.21;100.00
13968;BME280;39536;52.198;9.920;2023-02-14T03:49:57;102698.75;;;1.98;100.00
13968;BME280;39536;52.198;9.920;2023-02-14T03:52:26;102693.97;;;1.85;100.00
13968;BME280;39536;52.198;9.920;2023-02-14T03:54:57;102703.31;;;1.83;100.00
13968;BME280;39536;52.198;9.920;2023-02-14T03:57:27;102695.97;;;1.70;100.00
13968;BME280;39536;52.198;9.920;2023-02-14T03:59:56;102691.28;;;1.59;100.00
13968;BME280;39536;52.198;9.920;2023-02-14T04:02:26;102689.88;;;1.68;100.00
13968;BME280;39536;52.198;9.920;2023-02-14T04:04:56;102686.47;;;1.46;100.00
13968;BME280;39536;52.198;9.920;2023-02-14T04:07:25;102692.81;;;1.33;100.00
13968;BME280;39536;52.198;9.920;2023-02-14T04:09:51;102700.84;;;1.20;100.00
13968;BME280;39536;52.198;9.920;2023-02-14T04:12:19;102692.84;;;1.12;100.00
13968;BME280;39536;52.198;9.920;2023-02-14T04:14:46;102690.91;;;1.07;100.00
13968;BME280;39536;52.198;9.920;2023-02-14T04:17:13;102700.81;;;0.78;100.00
13968;BME280;39536;52.198;9.920;2023-02-14T04:19:57;102698.38;;;0.62;100.00
13968;BME280;39536;52.198;9.920;2023-02-14T04:22:23;102693.22;;;0.41;100.00
13968;BME280;39536;52.198;9.920;2023-02-14T04:24:50;102692.97;;;0.35;100.00
13968;BME280;39536;52.198;9.920;2023-02-14T04:27:17;102692.00;;;0.13;100.00
13968;BME280;39536;52.198;9.920;2023-02-14T04:29:47;102687.47;;;0.08;100.00
13968;BME280;39536;52.198;9.920;2023-02-14T04:32:16;102680.66;;;-0.11;100.00
13968;BME280;39536;52.198;9.920;2023-02-14T04:34:43;102685.09;;;-0.07;100.00
13968;BME280;39536;52.198;9.920;2023-02-14T04:37:11;102686.25;;;-0.01;100.00
13968;BME280;39536;52.198;9.920;2023-02-14T04:39:38;102692.00;;;-0.06;100.00
13968;BME280;39536;52.198;9.920;2023-02-14T04:42:05;102692.50;;;-0.13;100.00
13968;BME280;39536;52.198;9.920;2023-02-14T04:44:32;102692.63;;;-0.10;100.00
13968;BME280;39536;52.198;9.920;2023-02-14T04:47:01;102693.31;;;-0.14;100.00
13968;BME280;39536;52.198;9.920;2023-02-14T04:49:27;102688.34;;;-0.29;100.00
13968;BME280;39536;52.198;9.920;2023-02-14T04:51:55;102683.19;;;-0.11;100.00
13968;BME280;39536;52.198;9.920;2023-02-14T04:54:21;102690.16;;;-0.09;100.00
13968;BME280;39536;52.198;9.920;2023-02-14T04:56:48;102686.47;;;0.04;100.00
13968;BME280;39536;52.198;9.920;2023-02-14T04:59:15;102691.91;;;0.12;100.00
13968;BME280;39536;52.198;9.920;2023-02-14T05:01:42;102694.97;;;0.22;100.00
13968;BME280;39536;52.198;9.920;2023-02-14T05:04:10;102687.44;;;0.26;100.00
13968;BME280;39536;52.198;9.920;2023-02-14T05:06:37;102690.13;;;0.29;100.00
13968;BME280;39536;52.198;9.920;2023-02-14T05:09:03;102680.88;;;0.32;100.00
13968;BME280;39536;52.198;9.920;2023-02-14T05:11:30;102679.31;;;0.36;100.00
13968;BME280;39536;52.198;9.920;2023-02-14T05:13:57;102673.47;;;0.38;100.00
13968;BME280;39536;52.198;9.920;2023-02-14T05:16:24;102680.41;;;0.41;100.00
13968;BME280;39536;52.198;9.920;2023-02-14T05:18:51;102678.91;;;0.46;100.00
13968;BME280;39536;52.198;9.920;2023-02-14T05:21:19;102677.34;;;0.50;100.00
13968;BME280;39536;52.198;9.920;2023-02-14T05:23:46;102679.31;;;0.55;100.00
13968;BME280;39536;52.198;9.920;2023-02-14T05:26:12;102675.13;;;0.57;100.00
13968;BME280;39536;52.198;9.920;2023-02-14T05:28:39;102668.03;;;0.52;100.00
13968;BME280;39536;52.198;9.920;2023-02-14T05:31:07;102673.53;;;0.59;100.00
13968;BME280;39536;52.198;9.920;2023-02-14T05:33:34;102676.13;;;0.61;100.00
13968;BME280;39536;52.198;9.920;2023-02-14T05:36:01;102668.44;;;0.61;100.00
13968;BME280;39536;52.198;9.920;2023-02-14T05:38:29;102669.53;;;0.66;100.00
13968;BME280;39536;52.198;9.920;2023-02-14T05:40:57;102665.63;;;0.55;100.00
13968;BME280;39536;52.198;9.920;2023-02-14T05:43:24;102670.75;;;0.55;100.00
13968;BME280;39536;52.198;9.920;2023-02-14T05:45:51;102669.19;;;0.58;100.00
13968;BME280;39536;52.198;9.920;2023-02-14T05:48:18;102665.56;;;0.53;100.00
13968;BME280;39536;52.198;9.920;2023-02-14T05:50:45;102664.66;;;0.53;100.00
13968;BME280;39536;52.198;9.920;2023-02-14T05:53:12;102674.78;;;0.50;100.00
13968;BME280;39536;52.198;9.920;2023-02-14T05:55:40;102679.84;;;0.48;100.00
13968;BME280;39536;52.198;9.920;2023-02-14T05:58:07;102677.28;;;0.48;100.00
13968;BME280;39536;52.198;9.920;2023-02-14T06:00:34;102675.69;;;0.50;100.00
13968;BME280;39536;52.198;9.920;2023-02-14T06:03:01;102675.59;;;0.49;100.00
13968;BME280;39536;52.198;9.920;2023-02-14T06:05:28;102681.88;;;0.55;100.00
13968;BME280;39536;52.198;9.920;2023-02-14T06:07:55;102680.94;;;0.53;100.00
13968;BME280;39536;52.198;9.920;2023-02-14T06:10:23;102679.53;;;0.60;100.00
13968;BME280;39536;52.198;9.920;2023-02-14T06:12:52;102678.69;;;0.61;100.00
13968;BME280;39536;52.198;9.920;2023-02-14T06:15:19;102676.94;;;0.60;100.00
13968;BME280;39536;52.198;9.920;2023-02-14T06:17:50;102679.31;;;0.55;100.00
13968;BME280;39536;52.198;9.920;2023-02-14T06:20:17;102677.84;;;0.41;100.00
13968;BME280;39536;52.198;9.920;2023-02-14T06:22:44;102678.91;;;0.27;100.00
13968;BME280;39536;52.198;9.920;2023-02-14T06:25:10;102673.53;;;0.20;100.00
13968;BME280;39536;52.198;9.920;2023-02-14T06:27:37;102673.56;;;0.03;100.00
13968;BME280;39536;52.198;9.920;2023-02-14T06:30:07;102667.44;;;-0.01;100.00
13968;BME280;39536;52.198;9.920;2023-02-14T06:32:34;102679.19;;;-0.06;100.00
13968;BME280;39536;52.198;9.920;2023-02-14T06:35:01;102672.97;;;-0.11;100.00
13968;BME280;39536;52.198;9.920;2023-02-14T06:37:28;102681.47;;;-0.30;100.00
13968;BME280;39536;52.198;9.920;2023-02-14T06:39:55;102680.66;;;-0.47;100.00
13968;BME280;39536;52.198;9.920;2023-02-14T06:42:22;102685.94;;;-0.44;100.00
13968;BME280;39536;52.198;9.920;2023-02-14T06:44:49;102685.66;;;-0.50;100.00
13968;BME280;39536;52.198;9.920;2023-02-14T06:47:17;102690.09;;;-0.28;100.00
13968;BME280;39536;52.198;9.920;2023-02-14T06:49:44;102684.72;;;-0.34;100.00
13968;BME280;39536;52.198;9.920;2023-02-14T06:52:11;102687.63;;;-0.27;100.00
13968;BME280;39536;52.198;9.920;2023-02-14T06:54:37;102694.31;;;-0.11;100.00
13968;BME280;39536;52.198;9.920;2023-02-14T06:57:04;102692.66;;;0.09;100.00
13968;BME280;39536;52.198;9.920;2023-02-14T06:59:30;102694.75;;;0.18;100.00
13968;BME280;39536;52.198;9.920;2023-02-14T07:01:57;102700.38;;;0.29;100.00
13968;BME280;39536;52.198;9.920;2023-02-14T07:04:25;102697.19;;;0.34;100.00
13968;BME280;39536;52.198;9.920;2023-02-14T07:06:52;102693.56;;;0.29;100.00
13968;BME280;39536;52.198;9.920;2023-02-14T07:09:18;102692.81;;;0.32;100.00
13968;BME280;39536;52.198;9.920;2023-02-14T07:11:45;102690.66;;;0.41;100.00
13968;BME280;39536;52.198;9.920;2023-02-14T07:14:12;102693.50;;;0.47;100.00
13968;BME280;39536;52.198;9.920;2023-02-14T07:16:38;102697.19;;;0.34;100.00
13968;BME280;39536;52.198;9.920;2023-02-14T07:19:05;102700.56;;;0.33;100.00
13968;BME280;39536;52.198;9.920;2023-02-14T07:21:33;102702.81;;;0.26;100.00
13968;BME280;39536;52.198;9.920;2023-02-14T07:24:00;102701.31;;;0.31;100.00
13968;BME280;39536;52.198;9.920;2023-02-14T07:26:26;102696.59;;;0.40;100.00
13968;BME280;39536;52.198;9.920;2023-02-14T07:28:53;102702.94;;;0.48;100.00
13968;BME280;39536;52.198;9.920;2023-02-14T07:31:20;102695.28;;;0.50;100.00
13968;BME280;39536;52.198;9.920;2023-02-14T07:33:47;102694.03;;;0.59;100.00
13968;BME280;39536;52.198;9.920;2023-02-14T07:36:14;102688.41;;;0.68;100.00
13968;BME280;39536;52.198;9.920;2023-02-14T07:38:42;102690.00;;;0.85;100.00
13968;BME280;39536;52.198;9.920;2023-02-14T07:41:09;102685.19;;;0.93;100.00
13968;BME280;39536;52.198;9.920;2023-02-14T07:43:38;102678.72;;;1.03;100.00
13968;BME280;39536;52.198;9.920;2023-02-14T07:46:05;102677.31;;;1.09;100.00
13968;BME280;39536;52.198;9.920;2023-02-14T07:48:32;102674.88;;;1.12;100.00
13968;BME280;39536;52.198;9.920;2023-02-14T07:50:59;102677.13;;;1.26;100.00
13968;BME280;39536;52.198;9.920;2023-02-14T07:53:25;102674.34;;;1.42;100.00
13968;BME280;39536;52.198;9.920;2023-02-14T07:55:53;102674.81;;;1.54;100.00
13968;BME280;39536;52.198;9.920;2023-02-14T07:58:20;102671.84;;;1.66;100.00
13968;BME280;39536;52.198;9.920;2023-02-14T08:00:47;102673.00;;;1.74;100.00
13968;BME280;39536;52.198;9.920;2023-02-14T08:03:15;102670.75;;;1.82;100.00
13968;BME280;39536;52.198;9.920;2023-02-14T08:05:42;102676.03;;;1.87;100.00
13968;BME280;39536;52.198;9.920;2023-02-14T08:08:09;102670.34;;;1.94;100.00
13968;BME280;39536;52.198;9.920;2023-02-14T08:10:36;102673.94;;;1.99;100.00
13968;BME280;39536;52.198;9.920;2023-02-14T08:13:03;102671.22;;;1.94;100.00
13968;BME280;39536;52.198;9.920;2023-02-14T08:15:32;102677.28;;;1.96;100.00
13968;BME280;39536;52.198;9.920;2023-02-14T08:18:17;102686.38;;;2.11;100.00
13968;BME280;39536;52.198;9.920;2023-02-14T08:20:45;102678.66;;;2.11;100.00
13968;BME280;39536;52.198;9.920;2023-02-14T08:23:14;102686.09;;;2.27;100.00
13968;BME280;39536;52.198;9.920;2023-02-14T08:25:41;102684.25;;;2.47;100.00
13968;BME280;39536;52.198;9.920;2023-02-14T08:28:10;102682.66;;;2.50;100.00
13968;BME280;39536;52.198;9.920;2023-02-14T08:30:37;102679.25;;;2.51;100.00
13968;BME280;39536;52.198;9.920;2023-02-14T08:33:04;102681.63;;;2.45;100.00
13968;BME280;39536;52.198;9.920;2023-02-14T08:35:31;102679.59;;;2.61;100.00
13968;BME280;39536;52.198;9.920;2023-02-14T08:37:58;102682.44;;;2.68;100.00
13968;BME280;39536;52.198;9.920;2023-02-14T08:40:25;102679.03;;;2.69;100.00
13968;BME280;39536;52.198;9.920;2023-02-14T08:42:51;102678.47;;;2.78;100.00
13968;BME280;39536;52.198;9.920;2023-02-14T08:45:19;102678.59;;;2.81;100.00
13968;BME280;39536;52.198;9.920;2023-02-14T08:47:46;102674.19;;;2.78;100.00
13968;BME280;39536;52.198;9.920;2023-02-14T08:50:15;102681.47;;;2.90;100.00
13968;BME280;39536;52.198;9.920;2023-02-14T08:52:43;102670.66;;;3.00;100.00
13968;BME280;39536;52.198;9.920;2023-02-14T08:55:11;102672.78;;;3.14;100.00
13968;BME280;39536;52.198;9.920;2023-02-14T08:57:38;102673.19;;;3.26;100.00
13968;BME280;39536;52.198;9.920;2023-02-14T09:00:06;102669.28;;;3.39;100.00
13968;BME280;39536;52.198;9.920;2023-02-14T09:02:35;102673.09;;;3.50;100.00
13968;BME280;39536;52.198;9.920;2023-02-14T09:05:02;102674.28;;;3.61;100.00
13968;BME280;39536;52.198;9.920;2023-02-14T09:07:29;102671.34;;;3.78;100.00
13968;BME280;39536;52.198;9.920;2023-02-14T09:09:56;102666.59;;;3.91;100.00
13968;BME280;39536;52.198;9.920;2023-02-14T09:12:22;102672.38;;;4.13;100.00
13968;BME280;39536;52.198;9.920;2023-02-14T09:14:49;102667.84;;;4.36;100.00
13968;BME280;39536;52.198;9.920;2023-02-14T09:17:16;102667.44;;;4.52;100.00
13968;BME280;39536;52.198;9.920;2023-02-14T09:19:44;102659.38;;;4.73;100.00
13968;BME280;39536;52.198;9.920;2023-02-14T09:22:10;102652.22;;;4.96;100.00
13968;BME280;39536;52.198;9.920;2023-02-14T09:24:39;102650.97;;;5.15;100.00
13968;BME280;39536;52.198;9.920;2023-02-14T09:27:06;102644.53;;;5.36;100.00
13968;BME280;39536;52.198;9.920;2023-02-14T09:29:33;102648.44;;;5.56;100.00
13968;BME280;39536;52.198;9.920;2023-02-14T09:32:01;102645.47;;;5.78;100.00
13968;BME280;39536;52.198;9.920;2023-02-14T09:34:28;102649.34;;;5.97;100.00
13968;BME280;39536;52.198;9.920;2023-02-14T09:37:14;102646.31;;;6.18;100.00
13968;BME280;39536;52.198;9.920;2023-02-14T09:39:40;102641.47;;;6.35;100.00
13968;BME280;39536;52.198;9.920;2023-02-14T09:42:30;102640.94;;;6.52;100.00
13968;BME280;39536;52.198;9.920;2023-02-14T09:45:04;102636.78;;;6.61;100.00
13968;BME280;39536;52.198;9.920;2023-02-14T09:47:35;102638.78;;;6.78;100.00
13968;BME280;39536;52.198;9.920;2023-02-14T09:50:06;102634.72;;;6.92;100.00
13968;BME280;39536;52.198;9.920;2023-02-14T09:52:34;102634.81;;;7.00;100.00
13968;BME280;39536;52.198;9.920;2023-02-14T09:55:01;102637.69;;;7.16;100.00
13968;BME280;39536;52.198;9.920;2023-02-14T09:57:35;102643.09;;;7.32;100.00
13968;BME280;39536;52.198;9.920;2023-02-14T10:00:15;102643.25;;;7.43;100.00
13968;BME280;39536;52.198;9.920;2023-02-14T10:02:50;102637.38;;;7.56;100.00
13968;BME280;39536;52.198;9.920;2023-02-14T10:05:21;102638.41;;;7.69;100.00
13968;BME280;39536;52.198;9.920;2023-02-14T10:08:03;102642.03;;;7.80;100.00
13968;BME280;39536;52.198;9.920;2023-02-14T10:10:36;102637.91;;;7.97;100.00
13968;BME280;39536;52.198;9.920;2023-02-14T10:13:07;102637.25;;;8.14;100.00
13968;BME280;39536;52.198;9.920;2023-02-14T10:15:39;102634.81;;;8.26;100.00
13968;BME280;39536;52.198;9.920;2023-02-14T10:18:11;102624.53;;;8.35;100.00
13968;BME280;39536;52.198;9.920;2023-02-14T10:20:41;102622.94;;;8.48;100.00
13968;BME280;39536;52.198;9.920;2023-02-14T10:23:23;102629.91;;;8.53;100.00
13968;BME280;39536;52.198;9.920;2023-02-14T10:25:58;102626.41;;;8.50;100.00
13968;BME280;39536;52.198;9.920;2023-02-14T10:28:30;102621.25;;;8.51;100.00
13968;BME280;39536;52.198;9.920;2023-02-14T10:31:04;102622.09;;;8.53;100.00
13968;BME280;39536;52.198;9.920;2023-02-14T10:33:37;102618.69;;;8.58;100.00
13968;BME280;39536;52.198;9.920;2023-02-14T10:36:15;102617.06;;;8.69;100.00
13968;BME280;39536;52.198;9.920;2023-02-14T10:38:55;102620.50;;;8.65;100.00
13968;BME280;39536;52.198;9.920;2023-02-14T10:41:30;102624.00;;;8.71;100.00
13968;BME280;39536;52.198;9.920;2023-02-14T10:44:11;102618.88;;;8.77;100.00
13968;BME280;39536;52.198;9.920;2023-02-14T10:46:47;102623.28;;;8.86;100.00
13968;BME280;39536;52.198;9.920;2023-02-14T10:49:28;102619.88;;;8.96;100.00
13968;BME280;39536;52.198;9.920;2023-02-14T10:52:03;102614.81;;;9.10;100.00
13968;BME280;39536;52.198;9.920;2023-02-14T10:54:38;102616.56;;;9.17;100.00
13968;BME280;39536;52.198;9.920;2023-02-14T10:57:08;102605.41;;;9.32;100.00
13968;BME280;39536;52.198;9.920;2023-02-14T10:59:43;102598.50;;;9.40;100.00
13968;BME280;39536;52.198;9.920;2023-02-14T11:02:15;102592.50;;;9.47;100.00
13968;BME280;39536;52.198;9.920;2023-02-14T11:04:43;102597.72;;;9.55;100.00
13968;BME280;39536;52.198;9.920;2023-02-14T11:07:12;102590.03;;;9.75;100.00
13968;BME280;39536;52.198;9.920;2023-02-14T11:09:40;102585.72;;;9.92;100.00
13968;BME280;39536;52.198;9.920;2023-02-14T11:12:07;102577.97;;;10.15;100.00
13968;BME280;39536;52.198;9.920;2023-02-14T11:14:36;102582.38;;;10.39;100.00
13968;BME280;39536;52.198;9.920;2023-02-14T11:17:25;102571.97;;;10.61;100.00
13968;BME280;39536;52.198;9.920;2023-02-14T11:19:55;102570.25;;;10.72;100.00
13968;BME280;39536;52.198;9.920;2023-02-14T11:22:27;102568.50;;;10.97;100.00
13968;BME280;39536;52.198;9.920;2023-02-14T11:25:03;102565.81;;;11.20;100.00
13968;BME280;39536;52.198;9.920;2023-02-14T11:27:30;102565.78;;;11.39;100.00
13968;BME280;39536;52.198;9.920;2023-02-14T11:29:58;102560.47;;;11.60;100.00
13968;BME280;39536;52.198;9.920;2023-02-14T11:32:28;102561.28;;;11.77;100.00
13968;BME280;39536;52.198;9.920;2023-02-14T11:34:59;102551.66;;;11.90;100.00
13968;BME280;39536;52.198;9.920;2023-02-14T11:37:29;102549.84;;;12.03;100.00
13968;BME280;39536;52.198;9.920;2023-02-14T11:39:58;102545.41;;;12.13;100.00
13968;BME280;39536;52.198;9.920;2023-02-14T11:42:37;102542.72;;;12.23;100.00
13968;BME280;39536;52.198;9.920;2023-02-14T11:45:09;102538.31;;;12.30;100.00
13968;BME280;39536;52.198;9.920;2023-02-14T11:48:06;102534.81;;;12.34;100.00
13968;BME280;39536;52.198;9.920;2023-02-14T11:50:35;102535.59;;;12.47;100.00
13968;BME280;39536;52.198;9.920;2023-02-14T11:53:02;102528.44;;;12.64;100.00
13968;BME280;39536;52.198;9.920;2023-02-14T11:55:31;102530.31;;;12.50;100.00
13968;BME280;39536;52.198;9.920;2023-02-14T11:58:00;102524.13;;;12.62;100.00
13968;BME280;39536;52.198;9.920;2023-02-14T12:00:28;102525.75;;;12.75;100.00
13968;BME280;39536;52.198;9.920;2023-02-14T12:02:56;102525.69;;;12.80;100.00
13968;BME280;39536;52.198;9.920;2023-02-14T12:05:27;102524.97;;;12.65;100.00
13968;BME280;39536;52.198;9.920;2023-02-14T12:07:57;102521.34;;;12.77;100.00
13968;BME280;39536;52.198;9.920;2023-02-14T12:10:27;102509.88;;;12.93;100.00
13968;BME280;39536;52.198;9.920;2023-02-14T12:12:57;102513.16;;;13.11;100.00
13968;BME280;39536;52.198;9.920;2023-02-14T12:15:32;102506.94;;;13.20;100.00
13968;BME280;39536;52.198;9.920;2023-02-14T12:18:37;102502.53;;;13.26;100.00
13968;BME280;39536;52.198;9.920;2023-02-14T12:21:17;102500.69;;;13.33;100.00
13968;BME280;39536;52.198;9.920;2023-02-14T12:23:52;102494.81;;;13.12;100.00
13968;BME280;39536;52.198;9.920;2023-02-14T12:26:27;102495.66;;;13.14;100.00
13968;BME280;39536;52.198;9.920;2023-02-14T12:29:01;102488.63;;;13.20;100.00
13968;BME280;39536;52.198;9.920;2023-02-14T12:31:31;102480.75;;;13.24;100.00
13968;BME280;39536;52.198;9.920;2023-02-14T12:33:58;102473.53;;;13.43;100.00
13968;BME280;39536;52.198;9.920;2023-02-14T12:36:42;102469.75;;;13.64;100.00
13968;BME280;39536;52.198;9.920;2023-02-14T12:39:20;102453.94;;;13.72;100.00
13968;BME280;39536;52.198;9.920;2023-02-14T12:41:55;102451.03;;;13.89;100.00
13968;BME280;39536;52.198;9.920;2023-02-14T12:44:32;102460.44;;;14.03;100.00
13968;BME280;39536;52.198;9.920;2023-02-14T12:47:15;102455.00;;;14.14;100.00
13968;BME280;39536;52.198;9.920;2023-02-14T12:50:14;102451.34;;;14.24;100.00
13968;BME280;39536;52.198;9.920;2023-02-14T12:52:57;102448.72;;;14.24;100.00
13968;BME280;39536;52.198;9.920;2023-02-14T12:55:37;102444.41;;;14.20;100.00
13968;BME280;39536;52.198;9.920;2023-02-14T12:58:16;102440.16;;;14.13;100.00
13968;BME280;39536;52.198;9.920;2023-02-14T13:00:53;102437.63;;;14.08;100.00
13968;BME280;39536;52.198;9.920;2023-02-14T13:03:54;102427.00;;;14.18;100.00
13968;BME280;39536;52.198;9.920;2023-02-14T13:06:28;102430.31;;;14.27;100.00
13968;BME280;39536;52.198;9.920;2023-02-14T13:09:17;102425.03;;;14.29;100.00
13968;BME280;39536;52.198;9.920;2023-02-14T13:11:56;102423.47;;;14.19;100.00
13968;BME280;39536;52.198;9.920;2023-02-14T13:14:35;102420.16;;;14.07;100.00
13968;BME280;39536;52.198;9.920;2023-02-14T13:17:13;102410.88;;;13.90;100.00